Spring Mills, South Carolina
Current Conditions -  °F | °C
As of 5:15 AM on Sunday 21 Dec 2014 (Local Time) from KCDN Reporting Station
Haze Haze  
Wind Chill: 37°   Ceiling: 7000
Heat Index: 37°   Visibility: 4mi
Dew Point: 36°   Wind: 0mph
Humidity: 93%   Direction: NA
Pressure: 30.24"   Gusts: NA
Location:  34.5438°N, 80.5351°W
Report Text: KCDN 211015Z AUTO 00000KT 4SM BR OVC070 03/02 A3024 RMK AO2 TSNO
Loading
Personal Weather Stations






























Interactive Weather Map New forecast layout! Learn more

10-Day Weather Forecast

Advertisements
Track Severe Weather on mobile